sensor_id;sensor_type;location;lat;lon;timestamp;pressure;altitude;pressure_sealevel;temperature;humidity
17821;BME280;9035;42.554;23.188;2022-10-18T00:02:23;91376.16;;;9.21;49.85
17821;BME280;9035;42.554;23.188;2022-10-18T00:04:50;91368.97;;;9.18;50.33
17821;BME280;9035;42.554;23.188;2022-10-18T00:07:17;91358.00;;;9.26;49.24
17821;BME280;9035;42.554;23.188;2022-10-18T00:09:43;91366.41;;;9.37;48.12
17821;BME280;9035;42.554;23.188;2022-10-18T00:12:10;91362.47;;;9.39;48.61
17821;BME280;9035;42.554;23.188;2022-10-18T00:14:37;91363.25;;;9.58;47.99
17821;BME280;9035;42.554;23.188;2022-10-18T00:17:05;91350.56;;;9.56;46.78
17821;BME280;9035;42.554;23.188;2022-10-18T00:19:32;91349.81;;;9.56;48.10
17821;BME280;9035;42.554;23.188;2022-10-18T00:21:59;91347.22;;;9.56;47.76
17821;BME280;9035;42.554;23.188;2022-10-18T00:24:25;91345.69;;;9.55;46.75
17821;BME280;9035;42.554;23.188;2022-10-18T00:26:52;91337.97;;;9.68;47.26
17821;BME280;9035;42.554;23.188;2022-10-18T00:29:19;91332.63;;;9.47;48.28
17821;BME280;9035;42.554;23.188;2022-10-18T00:31:46;91326.97;;;9.26;48.78
17821;BME280;9035;42.554;23.188;2022-10-18T00:34:15;91328.84;;;9.21;48.14
17821;BME280;9035;42.554;23.188;2022-10-18T00:36:43;91302.69;;;8.62;49.90
17821;BME280;9035;42.554;23.188;2022-10-18T00:39:16;91319.16;;;8.89;49.88
17821;BME280;9035;42.554;23.188;2022-10-18T00:41:44;91313.03;;;9.04;48.95
17821;BME280;9035;42.554;23.188;2022-10-18T00:47:15;91308.19;;;8.97;47.87
17821;BME280;9035;42.554;23.188;2022-10-18T00:49:46;91311.91;;;9.10;47.32
17821;BME280;9035;42.554;23.188;2022-10-18T00:52:15;91308.84;;;9.26;47.29
17821;BME280;9035;42.554;23.188;2022-10-18T00:54:45;91310.84;;;9.29;48.64
17821;BME280;9035;42.554;23.188;2022-10-18T00:57:12;91309.06;;;9.30;48.48
17821;BME280;9035;42.554;23.188;2022-10-18T00:59:40;91305.25;;;9.22;47.56
17821;BME280;9035;42.554;23.188;2022-10-18T01:02:07;91311.28;;;8.99;48.96
17821;BME280;9035;42.554;23.188;2022-10-18T01:04:35;91311.34;;;8.94;49.32
17821;BME280;9035;42.554;23.188;2022-10-18T01:07:09;91301.81;;;8.72;49.83
17821;BME280;9035;42.554;23.188;2022-10-18T01:09:45;91284.50;;;8.72;49.07
17821;BME280;9035;42.554;23.188;2022-10-18T01:12:20;91294.84;;;8.90;48.64
17821;BME280;9035;42.554;23.188;2022-10-18T01:14:55;91292.34;;;8.85;48.22
17821;BME280;9035;42.554;23.188;2022-10-18T01:17:31;91287.09;;;8.90;47.74
17821;BME280;9035;42.554;23.188;2022-10-18T01:23:16;91286.53;;;8.93;48.13
17821;BME280;9035;42.554;23.188;2022-10-18T01:25:51;91290.09;;;8.97;47.91
17821;BME280;9035;42.554;23.188;2022-10-18T01:28:33;91283.31;;;9.01;47.43
17821;BME280;9035;42.554;23.188;2022-10-18T01:31:06;91285.72;;;8.98;48.13
17821;BME280;9035;42.554;23.188;2022-10-18T01:33:40;91286.47;;;8.80;48.34
17821;BME280;9035;42.554;23.188;2022-10-18T01:36:14;91279.25;;;8.77;49.14
17821;BME280;9035;42.554;23.188;2022-10-18T01:38:43;91280.56;;;8.75;49.08
17821;BME280;9035;42.554;23.188;2022-10-18T01:41:12;91270.44;;;8.78;48.94
17821;BME280;9035;42.554;23.188;2022-10-18T01:43:40;91274.78;;;8.82;48.30
17821;BME280;9035;42.554;23.188;2022-10-18T01:46:10;91277.09;;;8.84;48.97
17821;BME280;9035;42.554;23.188;2022-10-18T01:48:40;91276.88;;;8.99;48.44
17821;BME280;9035;42.554;23.188;2022-10-18T01:51:07;91276.66;;;8.95;48.74
17821;BME280;9035;42.554;23.188;2022-10-18T01:53:34;91285.63;;;8.84;48.76
17821;BME280;9035;42.554;23.188;2022-10-18T01:56:33;91273.94;;;8.87;48.08
17821;BME280;9035;42.554;23.188;2022-10-18T01:59:11;91272.13;;;8.87;48.28
17821;BME280;9035;42.554;23.188;2022-10-18T02:01:49;91275.91;;;8.77;48.03
17821;BME280;9035;42.554;23.188;2022-10-18T02:04:22;91276.44;;;8.74;47.82
17821;BME280;9035;42.554;23.188;2022-10-18T02:06:57;91273.16;;;8.86;47.41
17821;BME280;9035;42.554;23.188;2022-10-18T02:09:32;91270.09;;;8.84;48.49
17821;BME280;9035;42.554;23.188;2022-10-18T02:12:04;91268.16;;;8.77;48.06
17821;BME280;9035;42.554;23.188;2022-10-18T02:14:33;91270.56;;;8.68;48.28
17821;BME280;9035;42.554;23.188;2022-10-18T02:17:04;91265.34;;;8.73;47.82
17821;BME280;9035;42.554;23.188;2022-10-18T02:19:36;91262.97;;;8.77;47.90
17821;BME280;9035;42.554;23.188;2022-10-18T02:22:05;91254.94;;;8.78;47.54
17821;BME280;9035;42.554;23.188;2022-10-18T02:24:36;91258.91;;;8.71;47.86
17821;BME280;9035;42.554;23.188;2022-10-18T02:27:04;91263.81;;;8.72;48.61
17821;BME280;9035;42.554;23.188;2022-10-18T02:29:32;91258.97;;;8.66;48.56
17821;BME280;9035;42.554;23.188;2022-10-18T02:32:05;91254.31;;;8.68;48.48
17821;BME280;9035;42.554;23.188;2022-10-18T02:34:38;91251.72;;;8.68;48.48
17821;BME280;9035;42.554;23.188;2022-10-18T02:37:08;91255.56;;;8.70;48.81
17821;BME280;9035;42.554;23.188;2022-10-18T02:39:39;91253.25;;;8.69;48.51
17821;BME280;9035;42.554;23.188;2022-10-18T02:42:09;91252.47;;;8.68;48.62
17821;BME280;9035;42.554;23.188;2022-10-18T02:44:37;91249.91;;;8.86;48.86
17821;BME280;9035;42.554;23.188;2022-10-18T02:47:06;91258.72;;;8.85;48.95
17821;BME280;9035;42.554;23.188;2022-10-18T02:49:33;91264.28;;;8.74;48.54
17821;BME280;9035;42.554;23.188;2022-10-18T02:52:00;91269.31;;;8.84;48.43
17821;BME280;9035;42.554;23.188;2022-10-18T02:54:27;91260.53;;;8.85;47.98
17821;BME280;9035;42.554;23.188;2022-10-18T02:56:53;91224.63;;;8.65;48.39
17821;BME280;9035;42.554;23.188;2022-10-18T02:59:20;91265.50;;;8.81;48.88
17821;BME280;9035;42.554;23.188;2022-10-18T03:01:47;91269.91;;;8.81;48.69
17821;BME280;9035;42.554;23.188;2022-10-18T03:04:15;91271.28;;;8.74;48.91
17821;BME280;9035;42.554;23.188;2022-10-18T03:06:42;91263.44;;;8.60;49.51
17821;BME280;9035;42.554;23.188;2022-10-18T03:09:09;91269.25;;;8.71;48.26
17821;BME280;9035;42.554;23.188;2022-10-18T03:11:35;91267.66;;;8.75;48.33
17821;BME280;9035;42.554;23.188;2022-10-18T03:14:02;91270.06;;;8.66;48.15
17821;BME280;9035;42.554;23.188;2022-10-18T03:16:29;91274.84;;;8.77;47.95
17821;BME280;9035;42.554;23.188;2022-10-18T03:18:56;91271.09;;;8.47;48.59
17821;BME280;9035;42.554;23.188;2022-10-18T03:21:24;91269.00;;;8.49;48.80
17821;BME280;9035;42.554;23.188;2022-10-18T03:23:51;91268.28;;;8.43;48.95
17821;BME280;9035;42.554;23.188;2022-10-18T03:26:17;91271.44;;;8.17;50.48
17821;BME280;9035;42.554;23.188;2022-10-18T03:28:45;91276.06;;;8.20;50.27
17821;BME280;9035;42.554;23.188;2022-10-18T03:31:12;91268.16;;;8.35;51.20
17821;BME280;9035;42.554;23.188;2022-10-18T03:33:39;91267.03;;;8.41;50.03
17821;BME280;9035;42.554;23.188;2022-10-18T03:36:06;91266.69;;;8.29;49.89
17821;BME280;9035;42.554;23.188;2022-10-18T03:38:34;91261.22;;;8.30;50.52
17821;BME280;9035;42.554;23.188;2022-10-18T03:41:01;91262.88;;;8.21;50.51
17821;BME280;9035;42.554;23.188;2022-10-18T03:43:27;91252.22;;;8.28;50.39
17821;BME280;9035;42.554;23.188;2022-10-18T03:45:54;91266.31;;;8.12;51.01
17821;BME280;9035;42.554;23.188;2022-10-18T03:48:21;91264.63;;;8.26;50.18
17821;BME280;9035;42.554;23.188;2022-10-18T03:50:48;91252.53;;;8.21;50.70
17821;BME280;9035;42.554;23.188;2022-10-18T03:53:15;91261.28;;;7.97;51.98
17821;BME280;9035;42.554;23.188;2022-10-18T03:55:43;91254.53;;;8.01;52.07
17821;BME280;9035;42.554;23.188;2022-10-18T03:58:10;91259.88;;;8.09;52.29
17821;BME280;9035;42.554;23.188;2022-10-18T04:00:36;91251.06;;;8.10;52.84
17821;BME280;9035;42.554;23.188;2022-10-18T04:03:03;91255.19;;;8.16;52.54
17821;BME280;9035;42.554;23.188;2022-10-18T04:05:30;91252.91;;;8.10;52.42
17821;BME280;9035;42.554;23.188;2022-10-18T04:07:57;91263.78;;;8.07;52.96
17821;BME280;9035;42.554;23.188;2022-10-18T04:10:24;91258.56;;;8.12;52.68
17821;BME280;9035;42.554;23.188;2022-10-18T04:12:53;91254.47;;;8.06;52.76
17821;BME280;9035;42.554;23.188;2022-10-18T04:15:19;91256.00;;;8.12;53.16
17821;BME280;9035;42.554;23.188;2022-10-18T04:17:46;91248.50;;;8.15;53.18
17821;BME280;9035;42.554;23.188;2022-10-18T04:20:13;91264.00;;;8.10;53.41
17821;BME280;9035;42.554;23.188;2022-10-18T04:22:40;91255.88;;;8.22;51.38
17821;BME280;9035;42.554;23.188;2022-10-18T04:25:07;91251.19;;;8.29;52.38
17821;BME280;9035;42.554;23.188;2022-10-18T04:27:34;91244.47;;;8.28;52.59
17821;BME280;9035;42.554;23.188;2022-10-18T04:30:03;91241.66;;;8.24;52.35
17821;BME280;9035;42.554;23.188;2022-10-18T04:32:30;91249.25;;;8.16;52.80
17821;BME280;9035;42.554;23.188;2022-10-18T04:34:57;91238.84;;;8.21;51.53
17821;BME280;9035;42.554;23.188;2022-10-18T04:37:24;91237.81;;;8.22;51.37
17821;BME280;9035;42.554;23.188;2022-10-18T04:39:50;91239.34;;;8.23;51.26
17821;BME280;9035;42.554;23.188;2022-10-18T04:42:17;91236.03;;;8.17;51.70
17821;BME280;9035;42.554;23.188;2022-10-18T04:44:44;91237.34;;;8.20;52.49
17821;BME280;9035;42.554;23.188;2022-10-18T04:47:12;91236.09;;;8.12;52.62
17821;BME280;9035;42.554;23.188;2022-10-18T04:49:39;91232.38;;;8.23;51.99
17821;BME280;9035;42.554;23.188;2022-10-18T04:52:06;91234.25;;;8.18;52.66
17821;BME280;9035;42.554;23.188;2022-10-18T04:54:33;91240.34;;;8.27;52.15
17821;BME280;9035;42.554;23.188;2022-10-18T04:56:59;91238.19;;;8.34;52.46
17821;BME280;9035;42.554;23.188;2022-10-18T04:59:26;91234.16;;;8.46;52.51
17821;BME280;9035;42.554;23.188;2022-10-18T05:01:53;91238.34;;;8.42;53.01
17821;BME280;9035;42.554;23.188;2022-10-18T05:04:21;91229.59;;;8.38;52.17
17821;BME280;9035;42.554;23.188;2022-10-18T05:06:48;91232.69;;;8.40;51.63
17821;BME280;9035;42.554;23.188;2022-10-18T05:09:15;91162.66;;;7.77;51.74
17821;BME280;9035;42.554;23.188;2022-10-18T05:11:41;91224.41;;;8.20;51.83
17821;BME280;9035;42.554;23.188;2022-10-18T05:14:08;91231.06;;;8.26;51.77
17821;BME280;9035;42.554;23.188;2022-10-18T05:16:35;91226.44;;;8.23;51.29
17821;BME280;9035;42.554;23.188;2022-10-18T05:19:03;91220.44;;;8.27;50.51
17821;BME280;9035;42.554;23.188;2022-10-18T05:21:32;91213.00;;;8.21;50.84
17821;BME280;9035;42.554;23.188;2022-10-18T05:23:59;91173.34;;;8.12;51.99
17821;BME280;9035;42.554;23.188;2022-10-18T05:26:26;91225.16;;;8.44;51.79
17821;BME280;9035;42.554;23.188;2022-10-18T05:28:53;91224.44;;;8.38;51.29
17821;BME280;9035;42.554;23.188;2022-10-18T05:31:20;91228.69;;;8.29;51.00
17821;BME280;9035;42.554;23.188;2022-10-18T05:33:47;91226.72;;;8.21;52.59
17821;BME280;9035;42.554;23.188;2022-10-18T05:36:14;91230.78;;;8.04;51.87
17821;BME280;9035;42.554;23.188;2022-10-18T05:38:42;91241.50;;;8.16;50.90
17821;BME280;9035;42.554;23.188;2022-10-18T05:41:10;91238.81;;;8.26;51.12
17821;BME280;9035;42.554;23.188;2022-10-18T05:43:37;91236.31;;;8.39;51.24
17821;BME280;9035;42.554;23.188;2022-10-18T05:46:05;91241.16;;;8.22;51.14
17821;BME280;9035;42.554;23.188;2022-10-18T05:48:32;91242.53;;;8.38;50.53
17821;BME280;9035;42.554;23.188;2022-10-18T05:51:00;91241.28;;;8.36;51.46
17821;BME280;9035;42.554;23.188;2022-10-18T05:53:27;91248.44;;;8.39;51.49
17821;BME280;9035;42.554;23.188;2022-10-18T05:55:59;91239.88;;;8.43;52.26
17821;BME280;9035;42.554;23.188;2022-10-18T05:58:25;91242.84;;;8.55;51.09
17821;BME280;9035;42.554;23.188;2022-10-18T06:00:52;91247.66;;;8.62;51.58
17821;BME280;9035;42.554;23.188;2022-10-18T06:03:19;91242.00;;;8.78;52.83
17821;BME280;9035;42.554;23.188;2022-10-18T06:05:45;91243.41;;;8.89;51.41
17821;BME280;9035;42.554;23.188;2022-10-18T06:08:12;91237.41;;;8.93;51.90
17821;BME280;9035;42.554;23.188;2022-10-18T06:10:39;91246.63;;;8.99;50.55
17821;BME280;9035;42.554;23.188;2022-10-18T06:13:07;91242.06;;;9.10;49.33
17821;BME280;9035;42.554;23.188;2022-10-18T06:15:34;91255.41;;;9.17;50.04
17821;BME280;9035;42.554;23.188;2022-10-18T06:18:01;91255.34;;;9.22;51.64
17821;BME280;9035;42.554;23.188;2022-10-18T06:20:27;91249.94;;;9.37;52.42
17821;BME280;9035;42.554;23.188;2022-10-18T06:22:54;91240.50;;;9.46;51.45
17821;BME280;9035;42.554;23.188;2022-10-18T06:25:21;91242.91;;;9.56;50.41
17821;BME280;9035;42.554;23.188;2022-10-18T06:27:47;91245.50;;;9.69;51.54
17821;BME280;9035;42.554;23.188;2022-10-18T06:30:16;91243.22;;;9.67;50.41
17821;BME280;9035;42.554;23.188;2022-10-18T06:32:42;91247.94;;;9.79;50.37
17821;BME280;9035;42.554;23.188;2022-10-18T06:35:09;91243.44;;;9.84;51.94
17821;BME280;9035;42.554;23.188;2022-10-18T06:37:36;91237.97;;;9.86;51.34
17821;BME280;9035;42.554;23.188;2022-10-18T06:40:03;91240.50;;;9.91;51.79
17821;BME280;9035;42.554;23.188;2022-10-18T06:42:30;91244.19;;;10.03;53.15
17821;BME280;9035;42.554;23.188;2022-10-18T06:44:57;91245.91;;;10.08;53.22
17821;BME280;9035;42.554;23.188;2022-10-18T06:47:26;91243.03;;;10.09;51.94
17821;BME280;9035;42.554;23.188;2022-10-18T06:49:53;91249.84;;;10.19;51.78
17821;BME280;9035;42.554;23.188;2022-10-18T06:52:19;91242.06;;;10.19;51.30
17821;BME280;9035;42.554;23.188;2022-10-18T06:54:50;91255.03;;;10.19;51.96
17821;BME280;9035;42.554;23.188;2022-10-18T06:57:16;91245.63;;;10.36;52.16
17821;BME280;9035;42.554;23.188;2022-10-18T06:59:43;91247.94;;;10.51;51.70
17821;BME280;9035;42.554;23.188;2022-10-18T07:02:13;91249.47;;;10.38;50.64
17821;BME280;9035;42.554;23.188;2022-10-18T07:04:42;91241.09;;;10.55;48.95
17821;BME280;9035;42.554;23.188;2022-10-18T07:07:09;91243.97;;;10.67;47.82
17821;BME280;9035;42.554;23.188;2022-10-18T07:09:36;91247.81;;;10.69;49.35
17821;BME280;9035;42.554;23.188;2022-10-18T07:12:03;91246.44;;;10.85;49.70
17821;BME280;9035;42.554;23.188;2022-10-18T07:14:30;91249.91;;;10.81;49.77
17821;BME280;9035;42.554;23.188;2022-10-18T07:16:58;91247.19;;;10.99;49.50
17821;BME280;9035;42.554;23.188;2022-10-18T07:19:24;91244.31;;;11.22;47.70
17821;BME280;9035;42.554;23.188;2022-10-18T07:21:52;91241.03;;;11.30;48.02
17821;BME280;9035;42.554;23.188;2022-10-18T07:24:19;91235.19;;;11.25;48.35
17821;BME280;9035;42.554;23.188;2022-10-18T07:26:46;91239.63;;;11.46;48.50
17821;BME280;9035;42.554;23.188;2022-10-18T07:29:13;91239.25;;;11.53;48.59
17821;BME280;9035;42.554;23.188;2022-10-18T07:31:39;91236.72;;;11.61;48.79
17821;BME280;9035;42.554;23.188;2022-10-18T07:34:09;91236.75;;;11.70;48.70
17821;BME280;9035;42.554;23.188;2022-10-18T07:36:36;91239.19;;;11.66;48.51
17821;BME280;9035;42.554;23.188;2022-10-18T07:39:04;91232.31;;;11.70;48.61
17821;BME280;9035;42.554;23.188;2022-10-18T07:41:31;91233.59;;;11.81;48.52
17821;BME280;9035;42.554;23.188;2022-10-18T07:43:59;91233.19;;;11.88;48.49
17821;BME280;9035;42.554;23.188;2022-10-18T07:46:26;91235.50;;;11.89;48.53
17821;BME280;9035;42.554;23.188;2022-10-18T07:48:53;91227.78;;;12.06;47.93
17821;BME280;9035;42.554;23.188;2022-10-18T07:51:20;91224.94;;;12.24;46.23
17821;BME280;9035;42.554;23.188;2022-10-18T07:53:48;91217.53;;;12.40;45.62
17821;BME280;9035;42.554;23.188;2022-10-18T07:56:18;91213.28;;;12.52;46.06
17821;BME280;9035;42.554;23.188;2022-10-18T07:58:47;91217.09;;;12.46;46.27
17821;BME280;9035;42.554;23.188;2022-10-18T08:01:15;91218.00;;;12.42;46.13
17821;BME280;9035;42.554;23.188;2022-10-18T08:03:42;91221.19;;;12.39;45.90
17821;BME280;9035;42.554;23.188;2022-10-18T08:06:11;91226.97;;;12.36;45.66
17821;BME280;9035;42.554;23.188;2022-10-18T08:08:39;91216.34;;;12.54;45.94
17821;BME280;9035;42.554;23.188;2022-10-18T08:11:08;91228.13;;;12.60;45.30
17821;BME280;9035;42.554;23.188;2022-10-18T08:13:36;91211.25;;;12.88;44.39
17821;BME280;9035;42.554;23.188;2022-10-18T08:16:05;91218.75;;;12.98;44.53
17821;BME280;9035;42.554;23.188;2022-10-18T08:18:33;91220.13;;;13.12;43.59
17821;BME280;9035;42.554;23.188;2022-10-18T08:21:00;91209.88;;;13.16;43.91
17821;BME280;9035;42.554;23.188;2022-10-18T08:23:26;91216.91;;;13.07;43.12
17821;BME280;9035;42.554;23.188;2022-10-18T08:25:53;91214.94;;;13.04;43.21
17821;BME280;9035;42.554;23.188;2022-10-18T08:28:20;91216.00;;;13.28;42.95
17821;BME280;9035;42.554;23.188;2022-10-18T08:30:49;91220.31;;;13.33;42.24
17821;BME280;9035;42.554;23.188;2022-10-18T08:33:15;91212.00;;;13.48;42.57
17821;BME280;9035;42.554;23.188;2022-10-18T08:35:42;91210.50;;;13.38;42.93
17821;BME280;9035;42.554;23.188;2022-10-18T08:38:09;91214.34;;;13.49;41.52
17821;BME280;9035;42.554;23.188;2022-10-18T08:40:41;91214.78;;;13.60;41.54
17821;BME280;9035;42.554;23.188;2022-10-18T08:43:15;91203.72;;;13.71;42.46
17821;BME280;9035;42.554;23.188;2022-10-18T08:45:50;91195.28;;;13.65;42.73
17821;BME280;9035;42.554;23.188;2022-10-18T08:48:20;91198.44;;;13.96;41.95
17821;BME280;9035;42.554;23.188;2022-10-18T08:50:49;91198.44;;;14.05;41.95
17821;BME280;9035;42.554;23.188;2022-10-18T08:53:19;91186.09;;;14.31;38.62
17821;BME280;9035;42.554;23.188;2022-10-18T08:55:53;91187.22;;;14.50;36.28
17821;BME280;9035;42.554;23.188;2022-10-18T08:58:25;91185.22;;;14.55;37.53
17821;BME280;9035;42.554;23.188;2022-10-18T09:01:00;91187.94;;;14.59;37.75
17821;BME280;9035;42.554;23.188;2022-10-18T09:03:37;91188.16;;;14.74;38.89
17821;BME280;9035;42.554;23.188;2022-10-18T09:06:15;91186.94;;;15.01;39.10
17821;BME280;9035;42.554;23.188;2022-10-18T09:08:52;91188.91;;;15.04;38.03
17821;BME280;9035;42.554;23.188;2022-10-18T09:11:32;91191.63;;;15.07;36.50
17821;BME280;9035;42.554;23.188;2022-10-18T09:14:21;91199.34;;;15.04;36.74
17821;BME280;9035;42.554;23.188;2022-10-18T09:16:59;91187.22;;;14.99;37.37
17821;BME280;9035;42.554;23.188;2022-10-18T09:19:45;91190.16;;;15.27;36.28
17821;BME280;9035;42.554;23.188;2022-10-18T09:22:20;91194.72;;;15.50;35.25
17821;BME280;9035;42.554;23.188;2022-10-18T09:24:55;91178.91;;;15.46;36.04
17821;BME280;9035;42.554;23.188;2022-10-18T09:27:36;91176.53;;;15.53;34.60
17821;BME280;9035;42.554;23.188;2022-10-18T09:30:14;91177.81;;;15.68;32.49
17821;BME280;9035;42.554;23.188;2022-10-18T09:32:49;91178.03;;;15.75;34.48
17821;BME280;9035;42.554;23.188;2022-10-18T09:35:21;91180.03;;;15.90;33.51
17821;BME280;9035;42.554;23.188;2022-10-18T09:37:52;91173.09;;;15.94;34.14
17821;BME280;9035;42.554;23.188;2022-10-18T09:40:24;91177.25;;;15.95;34.57
17821;BME280;9035;42.554;23.188;2022-10-18T09:42:56;91177.47;;;16.02;34.62
17821;BME280;9035;42.554;23.188;2022-10-18T09:45:27;91167.38;;;16.24;34.14
17821;BME280;9035;42.554;23.188;2022-10-18T09:48:02;91168.38;;;16.31;32.77
17821;BME280;9035;42.554;23.188;2022-10-18T09:50:36;91172.09;;;16.42;33.02
17821;BME280;9035;42.554;23.188;2022-10-18T09:53:12;91164.44;;;16.37;33.57
17821;BME280;9035;42.554;23.188;2022-10-18T09:55:52;91165.19;;;16.26;33.76
17821;BME280;9035;42.554;23.188;2022-10-18T09:58:21;91160.63;;;16.35;32.42
17821;BME280;9035;42.554;23.188;2022-10-18T10:00:51;91165.22;;;16.50;32.56
17821;BME280;9035;42.554;23.188;2022-10-18T10:03:20;91165.09;;;16.82;32.70
17821;BME280;9035;42.554;23.188;2022-10-18T10:06:01;91162.06;;;16.80;31.43
17821;BME280;9035;42.554;23.188;2022-10-18T10:08:32;91154.84;;;17.01;32.22
17821;BME280;9035;42.554;23.188;2022-10-18T10:10:59;91156.22;;;17.22;30.55
17821;BME280;9035;42.554;23.188;2022-10-18T10:13:26;91153.38;;;17.55;31.48
17821;BME280;9035;42.554;23.188;2022-10-18T10:15:54;91148.63;;;17.72;31.39
17821;BME280;9035;42.554;23.188;2022-10-18T10:18:24;91146.47;;;17.62;29.14
17821;BME280;9035;42.554;23.188;2022-10-18T10:20:55;91141.81;;;17.56;32.50
17821;BME280;9035;42.554;23.188;2022-10-18T10:23:25;91133.72;;;17.76;32.14
17821;BME280;9035;42.554;23.188;2022-10-18T10:25:55;91133.03;;;18.06;31.89
17821;BME280;9035;42.554;23.188;2022-10-18T10:28:25;91129.22;;;18.19;30.74
17821;BME280;9035;42.554;23.188;2022-10-18T10:30:53;91115.84;;;18.40;30.73
17821;BME280;9035;42.554;23.188;2022-10-18T10:33:33;91116.09;;;18.65;31.26
17821;BME280;9035;42.554;23.188;2022-10-18T10:36:02;91110.00;;;18.96;30.56
17821;BME280;9035;42.554;23.188;2022-10-18T10:38:29;91099.34;;;19.23;29.91
17821;BME280;9035;42.554;23.188;2022-10-18T10:40:57;91098.81;;;19.33;28.47
17821;BME280;9035;42.554;23.188;2022-10-18T10:43:26;91075.41;;;19.28;28.17
17821;BME280;9035;42.554;23.188;2022-10-18T10:45:59;91077.50;;;19.04;28.47
17821;BME280;9035;42.554;23.188;2022-10-18T10:48:31;91085.66;;;19.33;29.29
17821;BME280;9035;42.554;23.188;2022-10-18T10:51:02;91084.88;;;19.51;28.85
17821;BME280;9035;42.554;23.188;2022-10-18T10:53:37;91080.44;;;19.36;28.79
17821;BME280;9035;42.554;23.188;2022-10-18T10:56:12;91072.00;;;19.46;28.99
17821;BME280;9035;42.554;23.188;2022-10-18T10:58:41;91067.03;;;19.83;30.03
17821;BME280;9035;42.554;23.188;2022-10-18T11:01:26;91055.03;;;20.04;28.85
17821;BME280;9035;42.554;23.188;2022-10-18T11:03:57;91062.47;;;19.99;28.69
17821;BME280;9035;42.554;23.188;2022-10-18T11:06:38;91058.81;;;20.29;27.90
17821;BME280;9035;42.554;23.188;2022-10-18T11:09:14;91052.75;;;20.51;27.65
17821;BME280;9035;42.554;23.188;2022-10-18T11:11:50;91054.81;;;20.87;27.88
17821;BME280;9035;42.554;23.188;2022-10-18T11:14:24;91049.31;;;21.28;27.14
17821;BME280;9035;42.554;23.188;2022-10-18T11:16:56;91046.22;;;21.88;27.49
17821;BME280;9035;42.554;23.188;2022-10-18T11:19:39;91045.88;;;21.89;26.59
17821;BME280;9035;42.554;23.188;2022-10-18T11:22:14;91041.97;;;21.77;26.25
17821;BME280;9035;42.554;23.188;2022-10-18T11:24:44;91043.97;;;22.30;26.66
17821;BME280;9035;42.554;23.188;2022-10-18T11:27:18;91031.72;;;23.08;25.20
17821;BME280;9035;42.554;23.188;2022-10-18T11:29:53;91025.63;;;23.96;24.22
17821;BME280;9035;42.554;23.188;2022-10-18T11:32:28;91022.28;;;24.48;23.42
17821;BME280;9035;42.554;23.188;2022-10-18T11:35:09;91020.75;;;25.95;22.23
17821;BME280;9035;42.554;23.188;2022-10-18T11:37:50;91018.09;;;26.56;21.83
17821;BME280;9035;42.554;23.188;2022-10-18T11:40:34;91000.50;;;26.69;21.64
17821;BME280;9035;42.554;23.188;2022-10-18T11:43:11;91003.94;;;28.06;20.47
17821;BME280;9035;42.554;23.188;2022-10-18T11:45:45;91003.81;;;28.92;20.49
17821;BME280;9035;42.554;23.188;2022-10-18T11:48:39;90992.13;;;30.22;18.88
17821;BME280;9035;42.554;23.188;2022-10-18T11:51:16;90985.94;;;30.25;18.56
17821;BME280;9035;42.554;23.188;2022-10-18T11:53:55;90988.50;;;30.96;18.47
17821;BME280;9035;42.554;23.188;2022-10-18T11:56:32;90989.94;;;30.52;19.09
17821;BME280;9035;42.554;23.188;2022-10-18T11:59:14;90990.03;;;30.29;18.34
17821;BME280;9035;42.554;23.188;2022-10-18T12:01:54;90987.91;;;31.20;17.90
17821;BME280;9035;42.554;23.188;2022-10-18T12:04:26;90982.09;;;30.26;18.94
17821;BME280;9035;42.554;23.188;2022-10-18T12:07:04;90975.66;;;31.35;18.20
17821;BME280;9035;42.554;23.188;2022-10-18T12:09:34;90969.09;;;31.92;17.69
17821;BME280;9035;42.554;23.188;2022-10-18T12:12:06;90968.06;;;32.77;17.40
17821;BME280;9035;42.554;23.188;2022-10-18T12:14:37;90963.97;;;31.70;17.99
17821;BME280;9035;42.554;23.188;2022-10-18T12:17:14;90963.00;;;30.59;19.04
17821;BME280;9035;42.554;23.188;2022-10-18T12:19:44;90962.22;;;30.59;18.68
17821;BME280;9035;42.554;23.188;2022-10-18T12:22:19;90966.00;;;30.10;19.00
17821;BME280;9035;42.554;23.188;2022-10-18T12:24:47;90951.09;;;30.44;18.79
17821;BME280;9035;42.554;23.188;2022-10-18T12:27:14;90954.13;;;30.11;18.73
17821;BME280;9035;42.554;23.188;2022-10-18T12:29:48;90951.47;;;30.91;18.50
17821;BME280;9035;42.554;23.188;2022-10-18T12:32:19;90946.59;;;31.17;17.64
17821;BME280;9035;42.554;23.188;2022-10-18T12:34:50;90942.03;;;30.86;18.68
17821;BME280;9035;42.554;23.188;2022-10-18T12:40:23;90945.38;;;32.16;18.42
17821;BME280;9035;42.554;23.188;2022-10-18T12:42:52;90931.47;;;31.68;18.02
17821;BME280;9035;42.554;23.188;2022-10-18T12:45:29;90934.59;;;30.62;18.21
17821;BME280;9035;42.554;23.188;2022-10-18T12:47:59;90935.28;;;30.50;18.83
17821;BME280;9035;42.554;23.188;2022-10-18T12:50:32;90924.47;;;31.70;18.18
17821;BME280;9035;42.554;23.188;2022-10-18T12:53:05;90923.59;;;31.32;18.70
17821;BME280;9035;42.554;23.188;2022-10-18T12:55:36;90934.56;;;30.94;18.56
17821;BME280;9035;42.554;23.188;2022-10-18T12:58:20;90922.88;;;31.44;18.57
17821;BME280;9035;42.554;23.188;2022-10-18T13:00:55;90924.50;;;31.13;18.83
17821;BME280;9035;42.554;23.188;2022-10-18T13:06:12;90913.19;;;31.75;19.38
17821;BME280;9035;42.554;23.188;2022-10-18T13:08:40;90918.59;;;31.87;19.61
17821;BME280;9035;42.554;23.188;2022-10-18T13:11:33;90912.00;;;31.64;19.48
17821;BME280;9035;42.554;23.188;2022-10-18T13:14:24;90916.63;;;30.91;20.77
17821;BME280;9035;42.554;23.188;2022-10-18T13:16:58;90910.31;;;31.13;19.44
17821;BME280;9035;42.554;23.188;2022-10-18T13:19:32;90912.59;;;30.54;19.57
17821;BME280;9035;42.554;23.188;2022-10-18T13:22:13;90907.50;;;31.04;19.66
17821;BME280;9035;42.554;23.188;2022-10-18T13:24:52;90903.31;;;31.03;19.38
17821;BME280;9035;42.554;23.188;2022-10-18T13:27:30;90903.56;;;30.93;18.93
17821;BME280;9035;42.554;23.188;2022-10-18T13:30:29;90896.75;;;30.28;19.04
17821;BME280;9035;42.554;23.188;2022-10-18T13:33:08;90896.00;;;30.12;19.77
17821;BME280;9035;42.554;23.188;2022-10-18T13:35:51;90894.19;;;30.56;19.31